createdAt,value
2017-07-03T00:01:48.608Z,2.80
2017-07-03T00:04:17.723Z,2.30
2017-07-03T00:06:46.809Z,3.30
2017-07-03T00:09:15.920Z,2.63
2017-07-03T00:11:44.952Z,3.17
2017-07-03T00:14:14.037Z,2.23
2017-07-03T00:16:43.340Z,2.30
2017-07-03T00:19:12.392Z,3.40
2017-07-03T00:21:41.499Z,2.60
2017-07-03T00:24:10.588Z,3.10
2017-07-03T00:26:39.641Z,2.73
2017-07-03T00:29:08.740Z,2.67
2017-07-03T00:31:37.896Z,2.97
2017-07-03T00:34:07.297Z,2.57
2017-07-03T00:36:36.376Z,2.90
2017-07-03T00:39:05.467Z,2.70
2017-07-03T00:41:34.515Z,2.70
2017-07-03T00:44:03.576Z,3.33
2017-07-03T00:46:32.632Z,2.43
2017-07-03T00:49:01.737Z,2.90
2017-07-03T00:51:30.831Z,2.50
2017-07-03T00:53:59.904Z,2.77
2017-07-03T00:56:28.959Z,3.00
2017-07-03T00:58:58.021Z,2.80
2017-07-03T01:01:27.081Z,2.90
2017-07-03T01:03:56.149Z,2.43
2017-07-03T01:06:25.200Z,2.50
2017-07-03T01:08:54.293Z,2.30
2017-07-03T01:11:23.348Z,3.10
2017-07-03T01:13:52.413Z,3.67
2017-07-03T01:16:21.496Z,3.57
2017-07-03T01:18:50.568Z,2.70
2017-07-03T01:21:19.728Z,2.90
2017-07-03T01:23:48.796Z,2.83
2017-07-03T01:26:17.876Z,3.60
2017-07-03T01:28:46.938Z,3.20
2017-07-03T01:31:16.096Z,2.97
2017-07-03T01:33:45.169Z,2.83
2017-07-03T01:36:14.268Z,2.90
2017-07-03T01:38:43.564Z,2.93
2017-07-03T01:41:12.699Z,2.60
2017-07-03T01:43:41.745Z,3.17
2017-07-03T01:46:10.862Z,2.73
2017-07-03T01:48:39.921Z,2.70
2017-07-03T01:51:09.004Z,2.70
2017-07-03T01:53:38.083Z,2.90
2017-07-03T01:56:07.160Z,2.80
2017-07-03T01:58:36.256Z,2.97
2017-07-03T02:01:05.356Z,2.47
2017-07-03T02:03:34.446Z,2.40
2017-07-03T02:06:03.534Z,2.70
2017-07-03T02:08:32.578Z,2.93
2017-07-03T02:11:01.668Z,3.47
2017-07-03T02:13:30.720Z,3.13
2017-07-03T02:15:59.788Z,3.53
2017-07-03T02:18:28.861Z,3.93
2017-07-03T02:20:57.927Z,3.33
2017-07-03T02:23:26.981Z,3.30
2017-07-03T02:25:56.044Z,3.43
2017-07-03T02:28:25.136Z,3.40
2017-07-03T02:30:54.171Z,3.40
2017-07-03T02:33:23.236Z,3.23
2017-07-03T02:35:52.300Z,3.23
2017-07-03T02:38:21.368Z,2.80
2017-07-03T02:40:50.500Z,2.93
2017-07-03T02:43:19.564Z,3.47
2017-07-03T02:45:48.671Z,3.80
2017-07-03T02:48:17.705Z,3.30
2017-07-03T02:50:46.824Z,3.30
2017-07-03T02:53:15.869Z,2.40
2017-07-03T02:55:44.928Z,3.70
2017-07-03T02:58:14.034Z,3.73
2017-07-03T03:00:43.147Z,3.40
2017-07-03T03:03:12.272Z,3.27
2017-07-03T03:05:41.332Z,3.60
2017-07-03T03:08:10.467Z,3.40
2017-07-03T03:10:39.496Z,3.40
2017-07-03T03:13:08.805Z,3.80
2017-07-03T03:15:37.862Z,3.77
2017-07-03T03:18:07.012Z,3.67
2017-07-03T03:20:36.046Z,3.23
2017-07-03T03:23:05.121Z,3.13
2017-07-03T03:25:34.165Z,3.43
2017-07-03T03:28:03.256Z,5.30
2017-07-03T03:30:32.363Z,3.57
2017-07-03T03:33:01.412Z,4.10
2017-07-03T03:35:30.460Z,5.27
2017-07-03T03:37:59.529Z,4.77
2017-07-03T03:40:28.626Z,4.93
2017-07-03T03:42:57.714Z,5.60
2017-07-03T03:45:26.759Z,6.10
2017-07-03T03:47:55.807Z,5.57
2017-07-03T03:50:24.884Z,5.60
2017-07-03T03:52:53.980Z,4.93
2017-07-03T03:55:23.035Z,6.30
2017-07-03T03:57:52.141Z,7.13
2017-07-03T04:00:21.276Z,6.80
2017-07-03T04:02:50.453Z,5.43
2017-07-03T04:05:19.515Z,7.13
2017-07-03T04:07:48.581Z,5.80
2017-07-03T04:10:17.692Z,7.40
2017-07-03T04:12:46.771Z,6.70
2017-07-03T04:15:15.975Z,7.20
2017-07-03T04:17:45.037Z,6.20
2017-07-03T04:20:14.105Z,5.13
2017-07-03T04:22:43.186Z,5.47
2017-07-03T04:25:12.251Z,5.60
2017-07-03T04:27:41.291Z,6.57
2017-07-03T04:30:10.391Z,6.77
2017-07-03T04:32:39.465Z,6.60
2017-07-03T04:35:08.541Z,5.90
2017-07-03T04:37:37.597Z,5.63
2017-07-03T04:40:06.995Z,6.07
2017-07-03T04:42:36.040Z,5.93
2017-07-03T04:45:05.111Z,6.63
2017-07-03T04:47:34.191Z,6.13
2017-07-03T04:50:04.182Z,7.00
2017-07-03T04:52:33.274Z,6.17
2017-07-03T04:55:02.343Z,5.40
2017-07-03T04:57:31.763Z,6.30
2017-07-03T05:00:00.870Z,6.20
2017-07-03T05:02:30.374Z,5.67
2017-07-03T05:04:59.420Z,5.47
2017-07-03T05:07:28.532Z,6.03
2017-07-03T05:09:57.603Z,5.17
2017-07-03T05:12:26.653Z,5.00
2017-07-03T05:14:55.722Z,5.80
2017-07-03T05:17:24.816Z,4.77
2017-07-03T05:19:53.894Z,5.33
2017-07-03T05:22:22.975Z,5.30
2017-07-03T05:24:52.051Z,5.53
2017-07-03T05:27:21.095Z,5.60
2017-07-03T05:29:50.180Z,5.63
2017-07-03T05:32:19.225Z,5.10
2017-07-03T05:34:48.315Z,4.93
2017-07-03T05:37:17.392Z,4.83
2017-07-03T05:39:46.508Z,4.63
2017-07-03T05:42:15.625Z,5.30
2017-07-03T05:44:44.912Z,4.80
2017-07-03T05:47:14.015Z,5.53
2017-07-03T05:49:43.085Z,4.80
2017-07-03T05:52:12.203Z,5.00
2017-07-03T05:54:41.296Z,5.20
2017-07-03T05:57:10.438Z,4.90
2017-07-03T05:59:39.526Z,4.83
2017-07-03T06:02:08.593Z,4.27
2017-07-03T06:04:37.720Z,3.87
2017-07-03T06:07:06.829Z,4.13
2017-07-03T06:09:35.879Z,3.70
2017-07-03T06:12:05.234Z,5.07
2017-07-03T06:14:34.304Z,3.60
2017-07-03T06:17:03.462Z,3.57
2017-07-03T06:19:32.533Z,3.67
2017-07-03T06:22:01.579Z,3.93
2017-07-03T06:24:30.676Z,4.00
2017-07-03T06:26:59.733Z,3.87
2017-07-03T06:29:28.796Z,3.13
2017-07-03T06:31:57.867Z,3.87
2017-07-03T06:34:26.930Z,3.80
2017-07-03T06:36:56.032Z,4.00
2017-07-03T06:39:25.165Z,3.97
2017-07-03T06:41:54.493Z,4.13
2017-07-03T06:44:23.601Z,3.80
2017-07-03T06:46:52.696Z,3.60
2017-07-03T06:49:21.793Z,3.10
2017-07-03T06:51:50.868Z,3.10
2017-07-03T06:54:21.632Z,2.97
2017-07-03T06:56:50.707Z,2.63
2017-07-03T06:59:19.770Z,2.90
2017-07-03T07:01:48.855Z,2.73
2017-07-03T07:04:18.093Z,2.90
2017-07-03T07:06:47.140Z,2.50
2017-07-03T07:09:16.253Z,2.27
2017-07-03T07:11:45.337Z,3.00
2017-07-03T07:14:14.422Z,2.33
2017-07-03T07:16:43.492Z,3.30
2017-07-03T07:19:13.411Z,2.60
2017-07-03T07:21:42.620Z,2.93
2017-07-03T07:24:11.722Z,2.17
2017-07-03T07:26:41.798Z,2.63
2017-07-03T07:29:10.914Z,2.60
2017-07-03T07:31:39.962Z,2.97
2017-07-03T07:34:09.083Z,2.83
2017-07-03T07:36:38.143Z,2.60
2017-07-03T07:39:07.203Z,2.13
2017-07-03T07:41:36.257Z,2.57
2017-07-03T07:44:06.453Z,2.30
2017-07-03T07:46:35.527Z,1.83
2017-07-03T07:49:04.579Z,1.87
2017-07-03T07:51:33.628Z,2.20
2017-07-03T07:54:02.744Z,2.60
2017-07-03T07:56:31.785Z,2.10
2017-07-03T07:59:00.892Z,3.00
2017-07-03T08:01:29.981Z,1.70
2017-07-03T08:03:59.064Z,1.80
2017-07-03T08:06:28.126Z,2.03
2017-07-03T08:08:57.187Z,1.60
2017-07-03T08:11:26.286Z,2.00
2017-07-03T08:13:55.320Z,2.43
2017-07-03T08:16:24.386Z,2.07
2017-07-03T08:18:53.445Z,2.13
2017-07-03T08:21:22.491Z,2.30
2017-07-03T08:23:51.564Z,2.17
2017-07-03T08:26:20.667Z,1.83
2017-07-03T08:28:49.742Z,2.57
2017-07-03T08:31:18.776Z,2.13
2017-07-03T08:33:47.909Z,2.17
2017-07-03T08:36:16.953Z,2.43
2017-07-03T08:38:46.002Z,2.40
2017-07-03T08:41:15.086Z,1.90
2017-07-03T08:43:44.348Z,1.60
2017-07-03T08:46:13.500Z,2.70
2017-07-03T08:48:42.561Z,2.37
2017-07-03T08:51:11.624Z,2.60
2017-07-03T08:53:40.708Z,2.00
2017-07-03T08:56:09.802Z,2.33
2017-07-03T08:58:38.889Z,2.67
2017-07-03T09:01:07.976Z,2.90
2017-07-03T09:03:37.029Z,2.40
2017-07-03T09:06:06.110Z,2.47
2017-07-03T09:08:35.161Z,2.47
2017-07-03T09:11:04.239Z,2.23
2017-07-03T09:13:33.288Z,2.57
2017-07-03T09:16:02.357Z,3.20
2017-07-03T09:18:31.413Z,2.73
2017-07-03T09:21:00.520Z,3.00
2017-07-03T09:23:29.595Z,2.30
2017-07-03T09:25:58.642Z,2.40
2017-07-03T09:28:27.717Z,2.43
2017-07-03T09:30:56.918Z,2.63
2017-07-03T09:33:25.985Z,2.07
2017-07-03T09:35:55.032Z,1.93
2017-07-03T09:38:24.119Z,2.27
2017-07-03T09:40:53.413Z,2.87
2017-07-03T09:43:22.756Z,2.33
2017-07-03T09:45:51.796Z,2.00
2017-07-03T09:48:20.891Z,2.10
2017-07-03T09:50:49.953Z,1.90
2017-07-03T09:53:19.012Z,1.97
2017-07-03T09:55:48.056Z,2.60
2017-07-03T09:58:17.157Z,2.20
2017-07-03T10:00:46.212Z,2.80
2017-07-03T10:03:15.310Z,2.10
2017-07-03T10:05:44.416Z,2.00
2017-07-03T10:08:13.479Z,2.10
2017-07-03T10:10:42.560Z,2.00
2017-07-03T10:13:11.607Z,2.53
2017-07-03T10:15:40.690Z,2.20
2017-07-03T10:18:09.821Z,2.57
2017-07-03T10:20:38.908Z,2.10
2017-07-03T10:23:08.002Z,2.20
2017-07-03T10:25:37.083Z,2.40
2017-07-03T10:28:06.140Z,2.20
2017-07-03T10:30:35.247Z,2.57
2017-07-03T10:33:04.299Z,2.00
2017-07-03T10:35:33.401Z,2.27
2017-07-03T10:38:02.480Z,2.10
2017-07-03T10:40:31.571Z,2.50
2017-07-03T10:43:00.610Z,2.50
2017-07-03T10:45:29.678Z,2.40
2017-07-03T10:47:58.725Z,2.30
2017-07-03T10:50:27.831Z,2.77
2017-07-03T10:52:56.933Z,2.30
2017-07-03T10:55:25.988Z,2.50
2017-07-03T10:57:55.052Z,2.60
2017-07-03T11:00:24.143Z,2.67
2017-07-03T11:02:53.192Z,3.00
2017-07-03T11:05:22.285Z,2.70
2017-07-03T11:07:51.422Z,2.83
2017-07-03T11:10:20.472Z,3.20
2017-07-03T11:12:49.573Z,3.27
2017-07-03T11:15:18.623Z,2.70
2017-07-03T11:17:47.925Z,3.33
2017-07-03T11:20:16.995Z,2.73
2017-07-03T11:22:46.082Z,2.57
2017-07-03T11:25:15.137Z,2.50
2017-07-03T11:27:44.481Z,2.93
2017-07-03T11:30:13.584Z,2.10
2017-07-03T11:32:42.642Z,2.20
2017-07-03T11:35:11.708Z,2.20
2017-07-03T11:37:40.772Z,2.20
2017-07-03T11:40:09.854Z,3.20
2017-07-03T11:42:38.916Z,2.37
2017-07-03T11:45:08.233Z,2.07
2017-07-03T11:47:37.306Z,2.60
2017-07-03T11:50:06.364Z,2.20
2017-07-03T11:52:35.440Z,2.07
2017-07-03T11:55:04.544Z,2.43
2017-07-03T11:57:33.583Z,2.33
2017-07-03T12:00:02.653Z,2.13
2017-07-03T12:02:31.707Z,2.70
2017-07-03T12:05:00.782Z,2.20
2017-07-03T12:07:29.842Z,2.50
2017-07-03T12:09:58.919Z,2.10
2017-07-03T12:12:28.023Z,2.47
2017-07-03T12:14:57.123Z,2.13
2017-07-03T12:17:26.192Z,2.27
2017-07-03T12:19:55.227Z,1.80
2017-07-03T12:22:24.301Z,1.67
2017-07-03T12:24:53.407Z,2.00
2017-07-03T12:27:22.457Z,2.30
2017-07-03T12:29:51.579Z,2.23
2017-07-03T12:32:20.631Z,1.60
2017-07-03T12:34:49.773Z,2.13
2017-07-03T12:37:18.867Z,1.70
2017-07-03T12:39:47.948Z,1.40
2017-07-03T12:42:17.017Z,1.50
2017-07-03T12:44:46.063Z,1.83
2017-07-03T12:47:15.131Z,1.80
2017-07-03T12:49:44.222Z,2.00
2017-07-03T12:52:13.304Z,1.53
2017-07-03T12:54:42.600Z,1.50
2017-07-03T12:57:11.685Z,1.40
2017-07-03T12:59:40.788Z,1.30
2017-07-03T13:02:09.869Z,1.60
2017-07-03T13:04:38.908Z,1.70
2017-07-03T13:07:07.970Z,1.83
2017-07-03T13:09:37.296Z,1.90
2017-07-03T13:12:06.357Z,1.43
2017-07-03T13:14:35.428Z,2.20
2017-07-03T13:17:04.515Z,1.70
2017-07-03T13:19:33.648Z,1.60
2017-07-03T13:22:02.975Z,1.60
2017-07-03T13:24:32.272Z,1.77
2017-07-03T13:27:01.502Z,1.63
2017-07-03T13:29:30.628Z,1.80
2017-07-03T13:31:59.667Z,1.60
2017-07-03T13:34:28.742Z,1.50
2017-07-03T13:36:57.772Z,1.60
2017-07-03T13:39:26.828Z,1.93
2017-07-03T13:41:55.904Z,1.90
2017-07-03T13:44:24.951Z,1.77
2017-07-03T13:46:54.061Z,1.43
2017-07-03T13:49:23.142Z,1.90
2017-07-03T13:51:52.205Z,1.53
2017-07-03T13:54:21.268Z,2.07
2017-07-03T13:56:50.346Z,1.77
2017-07-03T13:59:19.417Z,1.70
2017-07-03T14:01:48.478Z,1.50
2017-07-03T14:04:17.644Z,1.80
2017-07-03T14:06:48.147Z,1.93
2017-07-03T14:09:17.391Z,1.70
2017-07-03T14:11:46.463Z,1.67
2017-07-03T14:14:15.506Z,1.60
2017-07-03T14:16:44.583Z,1.80
2017-07-03T14:19:13.631Z,1.50
2017-07-03T14:21:42.734Z,1.97
2017-07-03T14:24:11.783Z,1.50
2017-07-03T14:26:40.864Z,2.20
2017-07-03T14:29:09.953Z,2.30
2017-07-03T14:31:39.000Z,1.90
2017-07-03T14:34:08.100Z,1.80
2017-07-03T14:36:37.156Z,2.00
2017-07-03T14:39:06.254Z,1.77
2017-07-03T14:41:35.331Z,2.10
2017-07-03T14:44:04.401Z,1.70
2017-07-03T14:46:33.538Z,2.53
2017-07-03T14:49:02.591Z,2.47
2017-07-03T14:51:31.635Z,2.40
2017-07-03T14:54:00.745Z,1.80
2017-07-03T14:56:29.833Z,1.73
2017-07-03T14:58:58.884Z,1.93
2017-07-03T15:01:28.140Z,2.03
2017-07-03T15:03:57.203Z,2.10
2017-07-03T15:06:26.285Z,1.77
2017-07-03T15:08:55.344Z,1.80
2017-07-03T15:11:24.400Z,2.03
2017-07-03T15:13:53.505Z,2.70
2017-07-03T15:16:22.535Z,1.80
2017-07-03T15:18:51.592Z,2.00
2017-07-03T15:21:20.683Z,2.20
2017-07-03T15:23:49.798Z,1.93
2017-07-03T15:26:18.879Z,1.73
2017-07-03T15:28:47.982Z,2.17
2017-07-03T15:31:17.040Z,2.50
2017-07-03T15:33:46.125Z,1.93
2017-07-03T15:36:15.183Z,2.13
2017-07-03T15:38:44.287Z,1.97
2017-07-03T15:41:13.429Z,2.13
2017-07-03T15:43:42.557Z,2.20
2017-07-03T15:46:11.697Z,2.20
2017-07-03T15:48:40.789Z,2.40
2017-07-03T15:51:09.828Z,1.67
2017-07-03T15:53:38.930Z,2.10
2017-07-03T15:56:08.038Z,2.77
2017-07-03T15:58:37.098Z,2.77
2017-07-03T16:01:06.176Z,2.50
2017-07-03T16:03:35.272Z,2.13
2017-07-03T16:06:04.321Z,2.13
2017-07-03T16:08:33.399Z,2.23
2017-07-03T16:11:02.533Z,2.67
2017-07-03T16:13:31.612Z,2.60
2017-07-03T16:16:00.741Z,2.67
2017-07-03T16:18:29.792Z,2.77
2017-07-03T16:20:58.831Z,2.70
2017-07-03T16:23:27.919Z,2.87
2017-07-03T16:25:56.976Z,2.70
2017-07-03T16:28:26.049Z,3.17
2017-07-03T16:30:55.101Z,2.87
2017-07-03T16:33:24.162Z,2.53
2017-07-03T16:35:53.203Z,2.50
2017-07-03T16:38:22.273Z,2.60
2017-07-03T16:40:51.357Z,2.43
2017-07-03T16:43:20.452Z,2.60
2017-07-03T16:45:49.523Z,2.57
2017-07-03T16:48:18.621Z,3.20
2017-07-03T16:50:47.665Z,3.60
2017-07-03T16:53:16.699Z,3.27
2017-07-03T16:55:45.790Z,3.53
2017-07-03T16:58:14.921Z,3.60
2017-07-03T17:00:44.013Z,3.47
2017-07-03T17:03:13.905Z,3.23
2017-07-03T17:05:42.991Z,2.80
2017-07-03T17:08:12.086Z,3.13
2017-07-03T17:10:41.171Z,2.97
2017-07-03T17:13:10.237Z,3.00
2017-07-03T17:15:39.335Z,2.77
2017-07-03T17:18:08.454Z,2.40
2017-07-03T17:20:37.535Z,2.03
2017-07-03T17:23:06.608Z,2.80
2017-07-03T17:25:35.931Z,2.40
2017-07-03T17:28:04.995Z,2.60
2017-07-03T17:30:34.055Z,2.47
2017-07-03T17:33:03.900Z,2.53
2017-07-03T17:35:32.982Z,2.67
2017-07-03T17:38:02.820Z,2.50
2017-07-03T17:40:31.886Z,2.93
2017-07-03T17:43:01.751Z,2.90
2017-07-03T17:45:31.141Z,2.80
2017-07-03T17:48:00.176Z,2.67
2017-07-03T17:50:29.308Z,2.47
2017-07-03T17:52:59.103Z,2.10
2017-07-03T17:55:29.293Z,2.43
2017-07-03T17:57:58.339Z,2.80
2017-07-03T18:00:27.393Z,2.63
2017-07-03T18:02:56.477Z,2.57
2017-07-03T18:05:25.528Z,2.37
2017-07-03T18:07:54.632Z,2.97
2017-07-03T18:10:23.671Z,2.60
2017-07-03T18:12:52.772Z,2.30
2017-07-03T18:15:21.851Z,2.60
2017-07-03T18:17:50.955Z,2.57
2017-07-03T18:20:20.018Z,2.57
2017-07-03T18:22:49.111Z,2.70
2017-07-03T18:25:18.200Z,2.97
2017-07-03T18:27:47.250Z,2.47
2017-07-03T18:30:16.311Z,2.50
2017-07-03T18:32:45.368Z,3.23
2017-07-03T18:35:14.713Z,2.97
2017-07-03T18:37:43.789Z,3.17
2017-07-03T18:40:12.883Z,3.50
2017-07-03T18:42:41.982Z,3.80
2017-07-03T18:45:11.036Z,3.07
2017-07-03T18:47:40.873Z,3.30
2017-07-03T18:50:10.800Z,4.40
2017-07-03T18:52:39.904Z,4.40
2017-07-03T18:55:08.999Z,3.67
2017-07-03T18:57:38.029Z,3.90
2017-07-03T19:00:07.577Z,3.47
2017-07-03T19:02:37.373Z,2.40
2017-07-03T19:05:06.451Z,3.50
2017-07-03T19:07:36.413Z,3.30
2017-07-03T19:10:05.632Z,5.00
2017-07-03T19:12:34.733Z,3.60
2017-07-03T19:15:03.822Z,3.73
2017-07-03T19:17:32.894Z,3.90
2017-07-03T19:20:02.005Z,3.70
2017-07-03T19:22:31.087Z,4.40
2017-07-03T19:25:00.130Z,3.50
2017-07-03T19:27:29.214Z,3.60
2017-07-03T19:29:58.280Z,3.80
2017-07-03T19:32:27.556Z,3.63
2017-07-03T19:34:56.667Z,4.20
2017-07-03T19:37:25.735Z,4.37
2017-07-03T19:39:55.564Z,4.20
2017-07-03T19:42:24.637Z,4.37
2017-07-03T19:44:54.455Z,3.10
2017-07-03T19:47:23.525Z,4.17
2017-07-03T19:49:52.600Z,3.60
2017-07-03T19:52:21.691Z,4.00
2017-07-03T19:54:50.829Z,3.87
2017-07-03T19:57:20.683Z,3.20
2017-07-03T19:59:49.772Z,3.67
2017-07-03T20:02:18.843Z,2.93
2017-07-03T20:04:48.862Z,3.50
2017-07-03T20:07:18.677Z,3.13
2017-07-03T20:09:47.762Z,3.13
2017-07-03T20:12:16.852Z,3.20
2017-07-03T20:14:46.709Z,2.77
2017-07-03T20:17:15.803Z,2.70
2017-07-03T20:19:44.854Z,3.30
2017-07-03T20:22:14.697Z,3.20
2017-07-03T20:24:43.793Z,3.10
2017-07-03T20:27:13.645Z,2.97
2017-07-03T20:29:42.749Z,3.23
2017-07-03T20:32:11.795Z,3.10
2017-07-03T20:34:40.877Z,3.30
2017-07-03T20:37:10.712Z,2.40
2017-07-03T20:39:39.778Z,2.40
2017-07-03T20:42:08.831Z,2.80
2017-07-03T20:44:37.894Z,2.33
2017-07-03T20:47:07.059Z,3.10
2017-07-03T20:49:36.102Z,2.83
2017-07-03T20:52:05.149Z,2.67
2017-07-03T20:54:34.249Z,2.37
2017-07-03T20:57:03.354Z,2.97
2017-07-03T20:59:32.544Z,2.73
2017-07-03T21:02:02.355Z,3.00
2017-07-03T21:04:31.468Z,2.97
2017-07-03T21:07:00.516Z,2.50
2017-07-03T21:09:29.576Z,3.17
2017-07-03T21:11:58.661Z,2.60
2017-07-03T21:14:27.729Z,3.33
2017-07-03T21:16:57.565Z,3.70
2017-07-03T21:19:26.682Z,3.30
2017-07-03T21:21:55.728Z,3.47
2017-07-03T21:24:25.176Z,3.67
2017-07-03T21:26:54.960Z,4.03
2017-07-03T21:29:24.029Z,3.50
2017-07-03T21:31:53.110Z,3.57
2017-07-03T21:34:22.246Z,3.60
2017-07-03T21:36:51.353Z,3.77
2017-07-03T21:39:20.415Z,3.40
2017-07-03T21:41:49.584Z,4.43
2017-07-03T21:44:18.680Z,3.50
2017-07-03T21:46:47.752Z,3.60
2017-07-03T21:49:16.877Z,4.50
2017-07-03T21:51:46.131Z,4.20
2017-07-03T21:54:15.166Z,3.70
2017-07-03T21:56:44.236Z,3.70
2017-07-03T21:59:14.143Z,4.07
2017-07-03T22:01:43.189Z,4.60
2017-07-03T22:04:12.299Z,4.43
2017-07-03T22:06:41.361Z,4.07
2017-07-03T22:09:10.473Z,3.80
2017-07-03T22:11:39.551Z,3.63
2017-07-03T22:14:08.673Z,4.00
2017-07-03T22:16:37.733Z,4.20
2017-07-03T22:19:06.809Z,4.50
2017-07-03T22:21:35.920Z,4.10
2017-07-03T22:24:05.011Z,4.27
2017-07-03T22:26:34.061Z,4.07
2017-07-03T22:29:03.125Z,3.60
2017-07-03T22:31:32.220Z,3.80
2017-07-03T22:34:01.264Z,3.57
2017-07-03T22:36:30.495Z,3.70
2017-07-03T22:38:59.586Z,3.20
2017-07-03T22:41:28.663Z,3.17
2017-07-03T22:43:57.695Z,3.03
2017-07-03T22:46:26.761Z,3.03
2017-07-03T22:48:55.864Z,3.43
2017-07-03T22:51:24.949Z,2.70
2017-07-03T22:53:53.995Z,3.20
2017-07-03T22:56:23.072Z,3.40
2017-07-03T22:58:52.150Z,2.63
2017-07-03T23:01:21.211Z,2.77
2017-07-03T23:03:50.268Z,3.27
2017-07-03T23:06:19.324Z,3.00
2017-07-03T23:08:48.404Z,3.30
2017-07-03T23:11:17.493Z,3.20
2017-07-03T23:13:46.570Z,3.00
2017-07-03T23:16:15.767Z,3.63
2017-07-03T23:18:44.842Z,3.50
2017-07-03T23:21:13.901Z,2.63
2017-07-03T23:23:42.978Z,3.07
2017-07-03T23:26:12.059Z,3.10
2017-07-03T23:28:41.134Z,2.93
2017-07-03T23:31:10.280Z,3.20
2017-07-03T23:33:39.338Z,3.20
2017-07-03T23:36:08.412Z,2.83
2017-07-03T23:38:37.476Z,2.73
2017-07-03T23:41:06.576Z,2.60
2017-07-03T23:43:35.652Z,2.70
2017-07-03T23:46:04.685Z,2.67
2017-07-03T23:48:33.740Z,2.80
2017-07-03T23:51:02.810Z,3.37
2017-07-03T23:53:31.861Z,2.60
2017-07-03T23:56:00.915Z,2.60
2017-07-03T23:58:29.981Z,3.17
